T7GPM LSZA-LIRZ
Flight info
| Callsign | T7GPM |
|---|---|
| Flight time | 0h 56m |
| Altitude | 19000 |
| Route | SRN1W SRN L153 OSBUL L995 AMTEL Q85 LAKOX LAKOX1D |
| Aircraft | P180/L-SDE3FGHIRWY/L |
Departure
| Time | 2026-04-22 20:03 |
|---|---|
| Airport | Lugano Airport (LSZA) |
Arrival
| Time | 2026-04-22 20:59 |
|---|---|
| Airport | Perugia San Francesco d'Assisi – Umbria International Airport (LIRZ) |
| Time | Latitude | Longitude | Altitude | Speed | Heading |
|---|---|---|---|---|---|
| 2026-04-22 19:56 | 46.00128 | 8.90741 | 897 ft | 0 kts | 199° |
| 2026-04-22 19:57 | 46.00127 | 8.90740 | 897 ft | 1 kts | 204° |
| 2026-04-22 19:57 | 46.00127 | 8.90722 | 897 ft | 3 kts | 307° |
| 2026-04-22 19:57 | 46.00147 | 8.90740 | 897 ft | 5 kts | 66° |
| 2026-04-22 19:58 | 46.00165 | 8.90796 | 897 ft | 7 kts | 59° |
| 2026-04-22 19:58 | 46.00212 | 8.90840 | 897 ft | 9 kts | 18° |
| 2026-04-22 19:58 | 46.00278 | 8.90873 | 897 ft | 11 kts | 20° |
| 2026-04-22 19:58 | 46.00355 | 8.90911 | 897 ft | 12 kts | 19° |
| 2026-04-22 19:59 | 46.00440 | 8.90953 | 897 ft | 8 kts | 18° |
| 2026-04-22 20:00 | 46.00720 | 8.91202 | 895 ft | 17 kts | 19° |
| 2026-04-22 20:00 | 46.00818 | 8.91232 | 895 ft | 8 kts | 22° |
| 2026-04-22 20:01 | 46.00846 | 8.91281 | 894 ft | 2 kts | 7° |
| 2026-04-22 20:01 | 46.00852 | 8.91262 | 894 ft | 2 kts | 242° |
| 2026-04-22 20:01 | 46.00837 | 8.91258 | 895 ft | 4 kts | 184° |
| 2026-04-22 20:01 | 46.00826 | 8.91255 | 895 ft | 0 kts | 199° |
| 2026-04-22 20:02 | 46.00824 | 8.91254 | 895 ft | 7 kts | 199° |
| 2026-04-22 20:02 | 46.00533 | 8.91112 | 901 ft | 76 kts | 198° |
| 2026-04-22 20:02 | 45.99881 | 8.90792 | 901 ft | 119 kts | 199° |
| 2026-04-22 20:03 | 45.99032 | 8.90354 | 1556 ft | 142 kts | 200° |
| 2026-04-22 20:03 | 45.97997 | 8.89779 | 2130 ft | 182 kts | 201° |
| 2026-04-22 20:03 | 45.96740 | 8.89049 | 2656 ft | 206 kts | 201° |
| 2026-04-22 20:03 | 45.95278 | 8.88180 | 2995 ft | 245 kts | 201° |
| 2026-04-22 20:04 | 45.93658 | 8.87209 | 3587 ft | 247 kts | 202° |
| 2026-04-22 20:04 | 45.92161 | 8.86319 | 4374 ft | 224 kts | 202° |
| 2026-04-22 20:04 | 45.90710 | 8.85467 | 4636 ft | 231 kts | 202° |
| 2026-04-22 20:04 | 45.89170 | 8.84565 | 4523 ft | 247 kts | 202° |
| 2026-04-22 20:05 | 45.87559 | 8.83631 | 4589 ft | 250 kts | 202° |
| 2026-04-22 20:05 | 45.85961 | 8.82710 | 4908 ft | 243 kts | 202° |
| 2026-04-22 20:05 | 45.84406 | 8.81821 | 5268 ft | 239 kts | 202° |
| 2026-04-22 20:05 | 45.82850 | 8.80939 | 5476 ft | 242 kts | 202° |
| 2026-04-22 20:06 | 45.81282 | 8.80060 | 5572 ft | 249 kts | 202° |
| 2026-04-22 20:06 | 45.79649 | 8.79152 | 5689 ft | 252 kts | 202° |
| 2026-04-22 20:06 | 45.78013 | 8.78244 | 5929 ft | 251 kts | 202° |
| 2026-04-22 20:06 | 45.76387 | 8.77347 | 6155 ft | 250 kts | 202° |
| 2026-04-22 20:07 | 45.74755 | 8.76453 | 6388 ft | 250 kts | 202° |
| 2026-04-22 20:07 | 45.73058 | 8.75949 | 6576 ft | 253 kts | 176° |
| 2026-04-22 20:07 | 45.71480 | 8.77014 | 6745 ft | 256 kts | 136° |
| 2026-04-22 20:07 | 45.70362 | 8.78981 | 6968 ft | 254 kts | 125° |
| 2026-04-22 20:08 | 45.69296 | 8.81003 | 7170 ft | 256 kts | 129° |
| 2026-04-22 20:08 | 45.68070 | 8.82809 | 7503 ft | 250 kts | 136° |
| 2026-04-22 20:08 | 45.66818 | 8.84497 | 7912 ft | 244 kts | 134° |
| 2026-04-22 20:08 | 45.65673 | 8.86212 | 8336 ft | 239 kts | 130° |
| 2026-04-22 20:09 | 45.64591 | 8.87993 | 8767 ft | 236 kts | 129° |
| 2026-04-22 20:09 | 45.63515 | 8.89752 | 9207 ft | 234 kts | 130° |
| 2026-04-22 20:09 | 45.62413 | 8.91449 | 9652 ft | 232 kts | 131° |
| 2026-04-22 20:09 | 45.61295 | 8.93111 | 10100 ft | 230 kts | 131° |
| 2026-04-22 20:10 | 45.60196 | 8.94767 | 10509 ft | 229 kts | 130° |
| 2026-04-22 20:10 | 45.59120 | 8.96433 | 10923 ft | 227 kts | 130° |
| 2026-04-22 20:10 | 45.58051 | 8.98098 | 11336 ft | 226 kts | 130° |
| 2026-04-22 20:10 | 45.56995 | 8.99720 | 11761 ft | 225 kts | 130° |
| 2026-04-22 20:11 | 45.55921 | 9.01347 | 12195 ft | 225 kts | 130° |
| 2026-04-22 20:11 | 45.54851 | 9.02973 | 12634 ft | 224 kts | 130° |
| 2026-04-22 20:11 | 45.53790 | 9.04601 | 13077 ft | 223 kts | 130° |
| 2026-04-22 20:11 | 45.52736 | 9.06224 | 13525 ft | 222 kts | 130° |
| 2026-04-22 20:12 | 45.51681 | 9.07835 | 13978 ft | 221 kts | 130° |
| 2026-04-22 20:12 | 45.50632 | 9.09428 | 14385 ft | 220 kts | 130° |
| 2026-04-22 20:12 | 45.49938 | 9.10483 | 14657 ft | 218 kts | 130° |
| 2026-04-22 20:12 | 45.48570 | 9.12571 | 15205 ft | 216 kts | 130° |
| 2026-04-22 20:13 | 45.47895 | 9.13602 | 15482 ft | 214 kts | 130° |
| 2026-04-22 20:13 | 45.46872 | 9.15164 | 15917 ft | 211 kts | 130° |
| 2026-04-22 20:13 | 45.45883 | 9.16666 | 16334 ft | 208 kts | 130° |
| 2026-04-22 20:13 | 45.44896 | 9.18162 | 16766 ft | 205 kts | 130° |
| 2026-04-22 20:14 | 45.43925 | 9.19640 | 17163 ft | 204 kts | 130° |
| 2026-04-22 20:14 | 45.42955 | 9.21121 | 17529 ft | 204 kts | 130° |
| 2026-04-22 20:14 | 45.41985 | 9.22596 | 17902 ft | 203 kts | 130° |
| 2026-04-22 20:14 | 45.41017 | 9.24061 | 18277 ft | 202 kts | 130° |
| 2026-04-22 20:15 | 45.40067 | 9.25497 | 18626 ft | 201 kts | 130° |
| 2026-04-22 20:15 | 45.39115 | 9.26944 | 18956 ft | 200 kts | 130° |
| 2026-04-22 20:15 | 45.38160 | 9.28399 | 19176 ft | 206 kts | 130° |
| 2026-04-22 20:15 | 45.37144 | 9.29946 | 19185 ft | 222 kts | 130° |
| 2026-04-22 20:16 | 45.36054 | 9.31594 | 19193 ft | 234 kts | 130° |
| 2026-04-22 20:16 | 45.34907 | 9.33320 | 19194 ft | 246 kts | 130° |
| 2026-04-22 20:16 | 45.33712 | 9.35119 | 19194 ft | 255 kts | 130° |
| 2026-04-22 20:16 | 45.32478 | 9.36989 | 19193 ft | 263 kts | 130° |
| 2026-04-22 20:17 | 45.31203 | 9.38926 | 19183 ft | 274 kts | 130° |
| 2026-04-22 20:17 | 45.29870 | 9.40942 | 19182 ft | 283 kts | 130° |
| 2026-04-22 20:17 | 45.28497 | 9.43004 | 19181 ft | 291 kts | 131° |
| 2026-04-22 20:17 | 45.27087 | 9.45119 | 19181 ft | 298 kts | 131° |
| 2026-04-22 20:18 | 45.25651 | 9.47278 | 19179 ft | 304 kts | 130° |
| 2026-04-22 20:18 | 45.24204 | 9.49468 | 19180 ft | 312 kts | 130° |
| 2026-04-22 20:18 | 45.22702 | 9.51731 | 19182 ft | 319 kts | 131° |
| 2026-04-22 20:18 | 45.21163 | 9.54040 | 19183 ft | 325 kts | 131° |
| 2026-04-22 20:19 | 45.19596 | 9.56383 | 19181 ft | 329 kts | 131° |
| 2026-04-22 20:19 | 45.18010 | 9.58755 | 19177 ft | 333 kts | 131° |
| 2026-04-22 20:19 | 45.16409 | 9.61157 | 19174 ft | 336 kts | 131° |
| 2026-04-22 20:19 | 45.14798 | 9.63582 | 19176 ft | 338 kts | 131° |
| 2026-04-22 20:20 | 45.13171 | 9.66018 | 19173 ft | 341 kts | 131° |
| 2026-04-22 20:20 | 45.11552 | 9.68421 | 19175 ft | 343 kts | 131° |
| 2026-04-22 20:20 | 45.09902 | 9.70867 | 19176 ft | 344 kts | 131° |
| 2026-04-22 20:20 | 45.08249 | 9.73326 | 19173 ft | 345 kts | 131° |
| 2026-04-22 20:21 | 45.06599 | 9.75793 | 19173 ft | 345 kts | 131° |
| 2026-04-22 20:21 | 45.04948 | 9.78268 | 19176 ft | 345 kts | 131° |
| 2026-04-22 20:21 | 45.03308 | 9.80720 | 19175 ft | 340 kts | 131° |
| 2026-04-22 20:21 | 45.01682 | 9.83125 | 19173 ft | 335 kts | 131° |
| 2026-04-22 20:22 | 45.00075 | 9.85483 | 19171 ft | 332 kts | 131° |
| 2026-04-22 20:22 | 44.98498 | 9.87804 | 19175 ft | 329 kts | 131° |
| 2026-04-22 20:22 | 44.96929 | 9.90140 | 19168 ft | 327 kts | 131° |
| 2026-04-22 20:22 | 44.95377 | 9.92467 | 19166 ft | 325 kts | 131° |
| 2026-04-22 20:23 | 44.93827 | 9.94788 | 19161 ft | 324 kts | 131° |
| 2026-04-22 20:23 | 44.92270 | 9.97082 | 19176 ft | 323 kts | 131° |
| 2026-04-22 20:23 | 44.90707 | 9.99350 | 19180 ft | 322 kts | 131° |
| 2026-04-22 20:23 | 44.89146 | 10.01628 | 19194 ft | 322 kts | 131° |
| 2026-04-22 20:24 | 44.87608 | 10.03915 | 19195 ft | 321 kts | 130° |
| 2026-04-22 20:24 | 44.86097 | 10.06180 | 19198 ft | 321 kts | 130° |
| 2026-04-22 20:24 | 44.84557 | 10.08467 | 19199 ft | 321 kts | 131° |
| 2026-04-22 20:24 | 44.83008 | 10.10729 | 19198 ft | 320 kts | 131° |
| 2026-04-22 20:25 | 44.81457 | 10.12975 | 19202 ft | 320 kts | 131° |
| 2026-04-22 20:25 | 44.79906 | 10.15236 | 19204 ft | 320 kts | 131° |
| 2026-04-22 20:25 | 44.78372 | 10.17503 | 19204 ft | 320 kts | 131° |
| 2026-04-22 20:25 | 44.76843 | 10.19776 | 19206 ft | 320 kts | 131° |
| 2026-04-22 20:26 | 44.75463 | 10.22212 | 19199 ft | 315 kts | 114° |
| 2026-04-22 20:26 | 44.75050 | 10.25097 | 19202 ft | 303 kts | 81° |
| 2026-04-22 20:26 | 44.75734 | 10.27812 | 19201 ft | 292 kts | 54° |
| 2026-04-22 20:26 | 44.77126 | 10.29819 | 19221 ft | 285 kts | 34° |
| 2026-04-22 20:27 | 44.78450 | 10.31917 | 19169 ft | 294 kts | 60° |
| 2026-04-22 20:27 | 44.78706 | 10.34805 | 19171 ft | 308 kts | 94° |
| 2026-04-22 20:27 | 44.78059 | 10.37716 | 19178 ft | 313 kts | 108° |
| 2026-04-22 20:27 | 44.77150 | 10.40472 | 19184 ft | 315 kts | 113° |
| 2026-04-22 20:28 | 44.75859 | 10.42967 | 19173 ft | 322 kts | 137° |
| 2026-04-22 20:28 | 44.73908 | 10.44539 | 19183 ft | 325 kts | 155° |
| 2026-04-22 20:28 | 44.71814 | 10.45756 | 19186 ft | 325 kts | 156° |
| 2026-04-22 20:28 | 44.69791 | 10.47195 | 19179 ft | 325 kts | 148° |
| 2026-04-22 20:29 | 44.67879 | 10.48898 | 19183 ft | 325 kts | 144° |
| 2026-04-22 20:29 | 44.65976 | 10.50649 | 19187 ft | 326 kts | 146° |
| 2026-04-22 20:29 | 44.64009 | 10.52260 | 19188 ft | 327 kts | 150° |
| 2026-04-22 20:29 | 44.62008 | 10.53713 | 19189 ft | 328 kts | 152° |
| 2026-04-22 20:30 | 44.59965 | 10.55148 | 19188 ft | 328 kts | 152° |
| 2026-04-22 20:30 | 44.57949 | 10.56678 | 19190 ft | 329 kts | 149° |
| 2026-04-22 20:30 | 44.55978 | 10.58319 | 19193 ft | 329 kts | 147° |
| 2026-04-22 20:30 | 44.54015 | 10.59984 | 19207 ft | 330 kts | 147° |
| 2026-04-22 20:31 | 44.52016 | 10.61585 | 19208 ft | 331 kts | 149° |
| 2026-04-22 20:31 | 44.50011 | 10.63086 | 19206 ft | 331 kts | 151° |
| 2026-04-22 20:31 | 44.47971 | 10.64598 | 19202 ft | 331 kts | 150° |
| 2026-04-22 20:31 | 44.45951 | 10.66158 | 19203 ft | 331 kts | 149° |
| 2026-04-22 20:32 | 44.43951 | 10.67772 | 19204 ft | 332 kts | 148° |
| 2026-04-22 20:32 | 44.41959 | 10.69393 | 19203 ft | 331 kts | 149° |
| 2026-04-22 20:32 | 44.39947 | 10.70978 | 19205 ft | 331 kts | 150° |
| 2026-04-22 20:32 | 44.37918 | 10.72521 | 19204 ft | 331 kts | 150° |
| 2026-04-22 20:33 | 44.35889 | 10.74051 | 19204 ft | 332 kts | 150° |
| 2026-04-22 20:33 | 44.33868 | 10.75612 | 19205 ft | 332 kts | 149° |
| 2026-04-22 20:33 | 44.31859 | 10.77209 | 19202 ft | 332 kts | 149° |
| 2026-04-22 20:33 | 44.29881 | 10.78790 | 19203 ft | 332 kts | 149° |
| 2026-04-22 20:34 | 44.27865 | 10.80368 | 19204 ft | 332 kts | 150° |
| 2026-04-22 20:34 | 44.25840 | 10.81910 | 19206 ft | 333 kts | 150° |
| 2026-04-22 20:34 | 44.23797 | 10.83456 | 19201 ft | 332 kts | 150° |
| 2026-04-22 20:34 | 44.21775 | 10.85016 | 19201 ft | 332 kts | 149° |
| 2026-04-22 20:35 | 44.19762 | 10.86601 | 19205 ft | 332 kts | 149° |
| 2026-04-22 20:35 | 44.17749 | 10.88192 | 19200 ft | 333 kts | 149° |
| 2026-04-22 20:35 | 44.15726 | 10.89763 | 19202 ft | 333 kts | 150° |
| 2026-04-22 20:35 | 44.13685 | 10.91316 | 19204 ft | 333 kts | 150° |
| 2026-04-22 20:36 | 44.11667 | 10.92846 | 19202 ft | 333 kts | 150° |
| 2026-04-22 20:36 | 44.09620 | 10.94417 | 19197 ft | 332 kts | 149° |
| 2026-04-22 20:36 | 44.07620 | 10.95979 | 19200 ft | 333 kts | 149° |
| 2026-04-22 20:36 | 44.05603 | 10.97561 | 19199 ft | 333 kts | 149° |
| 2026-04-22 20:37 | 44.03567 | 10.99136 | 19195 ft | 333 kts | 150° |
| 2026-04-22 20:37 | 44.01556 | 11.00664 | 19194 ft | 333 kts | 150° |
| 2026-04-22 20:37 | 43.99527 | 11.02199 | 19192 ft | 333 kts | 150° |
| 2026-04-22 20:37 | 43.97496 | 11.03750 | 19191 ft | 332 kts | 150° |
| 2026-04-22 20:38 | 43.95478 | 11.05314 | 19193 ft | 332 kts | 149° |
| 2026-04-22 20:38 | 43.93454 | 11.06886 | 19186 ft | 333 kts | 149° |
| 2026-04-22 20:38 | 43.91425 | 11.08446 | 19186 ft | 333 kts | 150° |
| 2026-04-22 20:38 | 43.89389 | 11.09990 | 19186 ft | 333 kts | 150° |
| 2026-04-22 20:39 | 43.87377 | 11.11510 | 19180 ft | 333 kts | 151° |
| 2026-04-22 20:39 | 43.85345 | 11.13067 | 19180 ft | 334 kts | 150° |
| 2026-04-22 20:39 | 43.83315 | 11.14636 | 19180 ft | 334 kts | 150° |
| 2026-04-22 20:39 | 43.81283 | 11.16197 | 19179 ft | 334 kts | 150° |
| 2026-04-22 20:40 | 43.79242 | 11.17744 | 19179 ft | 334 kts | 151° |
| 2026-04-22 20:40 | 43.77191 | 11.19286 | 19180 ft | 334 kts | 151° |
| 2026-04-22 20:40 | 43.75145 | 11.20832 | 19181 ft | 335 kts | 151° |
| 2026-04-22 20:40 | 43.73125 | 11.22377 | 19181 ft | 337 kts | 150° |
| 2026-04-22 20:41 | 43.71070 | 11.23958 | 19184 ft | 339 kts | 150° |
| 2026-04-22 20:41 | 43.69001 | 11.25540 | 19194 ft | 340 kts | 151° |
| 2026-04-22 20:41 | 43.66916 | 11.27115 | 19193 ft | 342 kts | 151° |
| 2026-04-22 20:41 | 43.64827 | 11.28689 | 19187 ft | 343 kts | 152° |
| 2026-04-22 20:42 | 43.62730 | 11.30280 | 19197 ft | 344 kts | 152° |
| 2026-04-22 20:42 | 43.60624 | 11.31867 | 19198 ft | 345 kts | 151° |
| 2026-04-22 20:42 | 43.58506 | 11.33458 | 19198 ft | 346 kts | 151° |
| 2026-04-22 20:42 | 43.56380 | 11.35062 | 19027 ft | 352 kts | 151° |
| 2026-04-22 20:43 | 43.54215 | 11.36702 | 18768 ft | 355 kts | 150° |
| 2026-04-22 20:43 | 43.52050 | 11.38339 | 18441 ft | 354 kts | 150° |
| 2026-04-22 20:43 | 43.49883 | 11.39972 | 18067 ft | 355 kts | 150° |
| 2026-04-22 20:43 | 43.47719 | 11.41608 | 17701 ft | 355 kts | 150° |
| 2026-04-22 20:44 | 43.45553 | 11.43243 | 17331 ft | 354 kts | 150° |
| 2026-04-22 20:44 | 43.43423 | 11.44857 | 16971 ft | 354 kts | 150° |
| 2026-04-22 20:44 | 43.41267 | 11.46485 | 16618 ft | 353 kts | 150° |
| 2026-04-22 20:44 | 43.39113 | 11.48093 | 16268 ft | 352 kts | 151° |
| 2026-04-22 20:45 | 43.36960 | 11.49685 | 15915 ft | 350 kts | 151° |
| 2026-04-22 20:45 | 43.34819 | 11.51283 | 15571 ft | 349 kts | 149° |
| 2026-04-22 20:45 | 43.33014 | 11.53404 | 15170 ft | 339 kts | 122° |
| 2026-04-22 20:45 | 43.32175 | 11.56364 | 14790 ft | 328 kts | 99° |
| 2026-04-22 20:46 | 43.31042 | 11.62297 | 14127 ft | 326 kts | 114° |
| 2026-04-22 20:46 | 43.29781 | 11.64885 | 13781 ft | 325 kts | 123° |
| 2026-04-22 20:46 | 43.28513 | 11.67425 | 13431 ft | 321 kts | 121° |
| 2026-04-22 20:47 | 43.27147 | 11.69852 | 13107 ft | 320 kts | 127° |
| 2026-04-22 20:47 | 43.25595 | 11.72049 | 12758 ft | 321 kts | 136° |
| 2026-04-22 20:47 | 43.23846 | 11.73943 | 12419 ft | 320 kts | 141° |
| 2026-04-22 20:47 | 43.22073 | 11.75786 | 12087 ft | 317 kts | 139° |
| 2026-04-22 20:48 | 43.20426 | 11.77738 | 11758 ft | 314 kts | 134° |
| 2026-04-22 20:48 | 43.18905 | 11.79869 | 11428 ft | 312 kts | 129° |
| 2026-04-22 20:48 | 43.17476 | 11.82100 | 11120 ft | 309 kts | 127° |
| 2026-04-22 20:48 | 43.16050 | 11.84307 | 10806 ft | 309 kts | 129° |
| 2026-04-22 20:49 | 43.14545 | 11.86401 | 10499 ft | 308 kts | 133° |
| 2026-04-22 20:49 | 43.12965 | 11.88405 | 10198 ft | 311 kts | 135° |
| 2026-04-22 20:49 | 43.11334 | 11.90345 | 10027 ft | 305 kts | 136° |
| 2026-04-22 20:49 | 43.09757 | 11.92197 | 10025 ft | 295 kts | 135° |
| 2026-04-22 20:50 | 43.08258 | 11.94088 | 10023 ft | 291 kts | 132° |
| 2026-04-22 20:50 | 43.06837 | 11.96050 | 10020 ft | 289 kts | 130° |
| 2026-04-22 20:50 | 43.05459 | 11.98033 | 10019 ft | 287 kts | 130° |
| 2026-04-22 20:50 | 43.04068 | 11.99955 | 10018 ft | 287 kts | 132° |
| 2026-04-22 20:51 | 43.02611 | 12.01825 | 10014 ft | 287 kts | 134° |
| 2026-04-22 20:51 | 43.01129 | 12.03643 | 10017 ft | 286 kts | 134° |
| 2026-04-22 20:51 | 42.99657 | 12.05474 | 10023 ft | 285 kts | 134° |
| 2026-04-22 20:51 | 42.98225 | 12.07350 | 10019 ft | 285 kts | 131° |
| 2026-04-22 20:52 | 42.96917 | 12.09329 | 10005 ft | 274 kts | 117° |
| 2026-04-22 20:52 | 42.96466 | 12.11738 | 10004 ft | 257 kts | 86° |
| 2026-04-22 20:52 | 42.96697 | 12.14064 | 10003 ft | 245 kts | 66° |
| 2026-04-22 20:52 | 42.97465 | 12.16123 | 9810 ft | 245 kts | 56° |
| 2026-04-22 20:53 | 42.98286 | 12.18223 | 9568 ft | 250 kts | 61° |
| 2026-04-22 20:53 | 42.98964 | 12.20365 | 9140 ft | 245 kts | 64° |
| 2026-04-22 20:53 | 42.99632 | 12.22550 | 8674 ft | 255 kts | 63° |
| 2026-04-22 20:53 | 43.00355 | 12.24623 | 8433 ft | 220 kts | 62° |
| 2026-04-22 20:54 | 43.00844 | 12.26573 | 7862 ft | 221 kts | 74° |
| 2026-04-22 20:54 | 43.00999 | 12.28658 | 7152 ft | 214 kts | 84° |
| 2026-04-22 20:54 | 43.00944 | 12.30647 | 6638 ft | 203 kts | 88° |
| 2026-04-22 20:54 | 43.00893 | 12.32498 | 6319 ft | 187 kts | 86° |
| 2026-04-22 20:55 | 43.00871 | 12.34250 | 5817 ft | 183 kts | 85° |
| 2026-04-22 20:55 | 43.00854 | 12.35975 | 5330 ft | 179 kts | 87° |
| 2026-04-22 20:55 | 43.00720 | 12.37617 | 5104 ft | 175 kts | 93° |
| 2026-04-22 20:55 | 43.00486 | 12.39252 | 4851 ft | 173 kts | 95° |
| 2026-04-22 20:56 | 43.00248 | 12.40860 | 4651 ft | 171 kts | 95° |
| 2026-04-22 20:56 | 43.00003 | 12.42460 | 4430 ft | 172 kts | 96° |
| 2026-04-22 20:56 | 42.99756 | 12.43997 | 4049 ft | 163 kts | 94° |
| 2026-04-22 20:56 | 42.99589 | 12.45490 | 3927 ft | 155 kts | 92° |
| 2026-04-22 20:57 | 42.99600 | 12.46922 | 3798 ft | 149 kts | 65° |
| 2026-04-22 20:57 | 43.00306 | 12.48003 | 3334 ft | 165 kts | 38° |
| 2026-04-22 20:57 | 43.01379 | 12.48633 | 2726 ft | 172 kts | 14° |
| 2026-04-22 20:57 | 43.02515 | 12.48875 | 2469 ft | 161 kts | 17° |
| 2026-04-22 20:58 | 43.03605 | 12.49252 | 2062 ft | 161 kts | 17° |
| 2026-04-22 20:58 | 43.04685 | 12.49587 | 1703 ft | 162 kts | 14° |
| 2026-04-22 20:58 | 43.05771 | 12.49989 | 1369 ft | 162 kts | 16° |
| 2026-04-22 20:58 | 43.06859 | 12.50370 | 1146 ft | 159 kts | 14° |
| 2026-04-22 20:59 | 43.07940 | 12.50723 | 900 ft | 163 kts | 14° |
| 2026-04-22 20:59 | 43.08981 | 12.51108 | 693 ft | 135 kts | 13° |
| 2026-04-22 20:59 | 43.09720 | 12.51367 | 672 ft | 89 kts | 14° |
| 2026-04-22 20:59 | 43.10116 | 12.51506 | 678 ft | 32 kts | 14° |
| 2026-04-22 21:00 | 43.10319 | 12.51577 | 680 ft | 46 kts | 14° |
| 2026-04-22 21:00 | 43.10676 | 12.51700 | 679 ft | 27 kts | 14° |
| 2026-04-22 21:00 | 43.10762 | 12.51676 | 682 ft | 12 kts | 294° |
| 2026-04-22 21:00 | 43.10782 | 12.51552 | 695 ft | 11 kts | 266° |
| 2026-04-22 21:01 | 43.10746 | 12.51494 | 695 ft | 15 kts | 194° |
| 2026-04-22 21:01 | 43.10735 | 12.51491 | 682 ft | 0 kts | 194° |
| 2026-04-22 21:01 | 43.10734 | 12.51490 | 681 ft | 1 kts | 195° |
| 2026-04-22 21:01 | 43.10728 | 12.51488 | 675 ft | 2 kts | 195° |
| 2026-04-22 21:02 | 43.10702 | 12.51478 | 695 ft | 6 kts | 195° |
| 2026-04-22 21:02 | 43.10650 | 12.51460 | 691 ft | 9 kts | 194° |
| 2026-04-22 21:02 | 43.10575 | 12.51434 | 694 ft | 13 kts | 194° |
| 2026-04-22 21:02 | 43.10476 | 12.51399 | 693 ft | 16 kts | 194° |
| 2026-04-22 21:03 | 43.10357 | 12.51358 | 691 ft | 19 kts | 194° |
| 2026-04-22 21:03 | 43.10216 | 12.51310 | 690 ft | 22 kts | 194° |
| 2026-04-22 21:03 | 43.10058 | 12.51254 | 688 ft | 25 kts | 194° |
| 2026-04-22 21:03 | 43.09884 | 12.51193 | 686 ft | 23 kts | 194° |
| 2026-04-22 21:04 | 43.09779 | 12.51154 | 685 ft | 14 kts | 207° |
| 2026-04-22 21:04 | 43.09729 | 12.51031 | 682 ft | 16 kts | 245° |
| 2026-04-22 21:04 | 43.09679 | 12.50878 | 684 ft | 19 kts | 245° |
| 2026-04-22 21:04 | 43.09620 | 12.50701 | 682 ft | 22 kts | 245° |
| 2026-04-22 21:05 | 43.09563 | 12.50527 | 682 ft | 14 kts | 245° |
| 2026-04-22 21:05 | 43.09518 | 12.50460 | 681 ft | 8 kts | 182° |
| 2026-04-22 21:05 | 43.09480 | 12.50439 | 681 ft | 3 kts | 227° |
| 2026-04-22 21:05 | 43.09460 | 12.50412 | 681 ft | 5 kts | 234° |
| 2026-04-22 21:06 | 43.09456 | 12.50398 | 681 ft | 0 kts | 250° |
| 2026-04-22 21:06 | 43.09456 | 12.50397 | 681 ft | 0 kts | 249° |